Accueil
METAR-TAF:

METAR-TAF

Aéroports :

Middleton Island, Alaska, États-Unis

latitude: 59-26N, longitude: 146-18W, altitude: 27 m

Observation

Le bulletin a été fait il y a 54 minutes, à 20:51 UTC
Vent 11 kt de sud
Température 8°C
Humidité 81%
Pression 996 hPa
Visibilité: 16.1 km
Ciel couvert à une hauteur de 4200 ft

METAR: PAMD 202051Z AUTO 18011KT 10SM OVC042 08/05 A2941 RMK AO2 SLP948 T00780050 58001

Heure: 12:45 (21:45 UTC)


TAF: absent

Observations et prévisions météorologiques de plus de 4000 aéroports (messages METAR et TAF).

Les stations disponibles sont représentées par des disques jaunes et rouges sur la carte.

Passer la souris dessus pour voir le nom de la station.

Cliquer dessus pour voir les observations et prévisions météorologiques.

Pour changer de carte: cliquez sur les boutons verts avec une croix noire pour zoomer, sur le bouton vert avec un tiret pour effectuer un zoom arrière, ou sur les flèches vertes pour les cartes adjacentes.


METAR-TAF: